Open Full Screen Window  High Contrast Mode
Wind Gusting 00 knots
03
September 25, 2017 5:45 AM EDT
Weather Information
Wind Direction
  090 °
Wind Speed
  03 kt (3 mph)
Wind Gust
  00 kt (0 mph)
Altimeter
30.09 in
Visibility
10 SM
Temperature
19° C
66° F
Dewpoint
17° C
63° F
Humidity
88%
1hr Rain Fall
00.00 in.
24hr Rain Fall
00.00 in.
Sky Condition
Clear
VFR

METAR KPOV 250945Z AUTO 09003KT 10SM CLR 19/17 A3009 RMK AO2 T01870172

*Background is not an actual portrayal of the airport.